LPLA METAR and TAF weather

Enter ICAO airport designator
Station Type Date Time Source
LPLA METAR 2020/07/02 21:00 UTC NOAA

LPLA 022100Z /////KT 9999 FEW023 21/17 Q1028


Station Type Date Time Source
LPLA Decoded METAR 2020/07/02 21:00 UTC NOAA

Lajes Acores , Portugal (LPLA) 38-46N 027-06W 54M
Jul 02, 2020 - 05:00 PM EDT / 2020.07.02 2100 UTC
Visibility: greater than 7 mile(s):0
Sky conditions: mostly clear
Temperature: 69 F (21 C)
Dew Point: 62 F (17 C)
Relative Humidity: 77%
Pressure (altimeter): 30.36 in. Hg (1028 hPa)
ob: LPLA 022100Z /////KT 9999 FEW023 21/17 Q1028
cycle: 21

Station Type Date Time Source
LPLA TAF 2020/07/02 18:18 UTC NOAA

TAF LPLA 021702Z 0218/0318 VRB05KT 9999 FEW020 SCT030

Example: see airport list